createdAt,value
2023-04-08T00:01:05.536Z,3.62
2023-04-08T00:04:14.997Z,3.72
2023-04-08T00:07:21.577Z,3.72
2023-04-08T00:10:26.645Z,3.71
2023-04-08T00:13:31.718Z,3.72
2023-04-08T00:16:36.789Z,3.73
2023-04-08T00:19:41.856Z,3.76
2023-04-08T00:22:48.303Z,3.75
2023-04-08T00:25:53.442Z,3.72
2023-04-08T00:28:58.491Z,3.73
2023-04-08T00:32:04.137Z,3.71
2023-04-08T00:35:09.620Z,3.74
2023-04-08T00:38:16.203Z,3.76
2023-04-08T00:41:21.396Z,3.78
2023-04-08T00:44:26.518Z,3.79
2023-04-08T00:47:31.782Z,3.77
2023-04-08T00:50:36.973Z,3.79
2023-04-08T00:53:43.492Z,3.76
2023-04-08T00:56:48.596Z,3.76
2023-04-08T00:59:53.594Z,3.79
2023-04-08T01:03:03.967Z,3.76
2023-04-08T01:06:14.983Z,3.81
2023-04-08T01:09:24.523Z,3.81
2023-04-08T01:12:32.177Z,3.83
2023-04-08T01:15:41.377Z,3.88
2023-04-08T01:18:47.287Z,3.84
2023-04-08T01:21:52.707Z,3.89
2023-04-08T01:25:04.238Z,3.86
2023-04-08T01:28:12.961Z,3.85
2023-04-08T01:31:18.704Z,3.90
2023-04-08T01:34:24.637Z,3.89
2023-04-08T01:37:30.857Z,3.91
2023-04-08T01:40:37.484Z,3.92
2023-04-08T01:43:45.184Z,3.89
2023-04-08T01:46:51.059Z,3.85
2023-04-08T01:49:56.846Z,3.90
2023-04-08T01:53:02.752Z,3.92
2023-04-08T01:56:11.066Z,3.93
2023-04-08T01:59:22.578Z,3.93
2023-04-08T02:02:28.720Z,3.92
2023-04-08T02:05:34.299Z,3.94
2023-04-08T02:08:40.904Z,3.96
2023-04-08T02:11:46.002Z,3.97
2023-04-08T02:14:53.426Z,4.00
2023-04-08T02:18:07.952Z,3.97
2023-04-08T02:21:15.984Z,3.94
2023-04-08T02:24:21.469Z,4.04
2023-04-08T02:27:27.128Z,3.97
2023-04-08T02:30:33.871Z,3.96
2023-04-08T02:33:39.485Z,3.93
2023-04-08T02:36:46.278Z,3.95
2023-04-08T02:39:52.551Z,3.89
2023-04-08T02:42:58.009Z,3.92
2023-04-08T02:46:06.323Z,3.89
2023-04-08T02:49:13.036Z,3.92
2023-04-08T02:52:18.116Z,3.92
2023-04-08T02:55:24.335Z,3.92
2023-04-08T02:58:29.385Z,3.95
2023-04-08T03:01:36.194Z,3.94
2023-04-08T03:04:41.268Z,3.96
2023-04-08T03:07:46.351Z,3.93
2023-04-08T03:10:51.747Z,3.96
2023-04-08T03:13:56.786Z,3.97
2023-04-08T03:17:03.263Z,3.96
2023-04-08T03:20:09.545Z,4.00
2023-04-08T03:23:14.802Z,3.99
2023-04-08T03:26:19.842Z,3.94
2023-04-08T03:29:24.879Z,4.01
2023-04-08T03:32:31.969Z,4.01
2023-04-08T03:35:37.518Z,4.01
2023-04-08T03:38:42.596Z,4.00
2023-04-08T03:41:47.765Z,4.00
2023-04-08T03:44:52.819Z,3.95
2023-04-08T03:47:59.448Z,3.97
2023-04-08T03:51:04.644Z,3.97
2023-04-08T03:54:09.780Z,3.95
2023-04-08T03:57:14.892Z,3.92
2023-04-08T04:00:19.972Z,3.89
2023-04-08T04:03:26.648Z,3.83
2023-04-08T04:06:31.997Z,3.82
2023-04-08T04:09:37.125Z,3.86
2023-04-08T04:12:42.618Z,3.87
2023-04-08T04:15:47.920Z,3.85
2023-04-08T04:18:54.660Z,3.83
2023-04-08T04:21:59.769Z,3.80
2023-04-08T04:25:05.032Z,3.81
2023-04-08T04:28:11.012Z,3.82
2023-04-08T04:31:21.856Z,3.77
2023-04-08T04:34:28.560Z,3.81
2023-04-08T04:37:33.538Z,3.81
2023-04-08T04:40:38.694Z,3.79
2023-04-08T04:43:43.677Z,3.79
2023-04-08T04:46:48.803Z,3.79
2023-04-08T04:49:55.573Z,3.77
2023-04-08T04:53:00.900Z,3.82
2023-04-08T04:56:06.498Z,3.81
2023-04-08T04:59:11.609Z,3.85
2023-04-08T05:02:16.785Z,3.86
2023-04-08T05:05:23.414Z,3.94
2023-04-08T05:08:28.512Z,3.89
2023-04-08T05:11:33.594Z,3.93
2023-04-08T05:14:38.735Z,3.93
2023-04-08T05:17:44.929Z,3.91
2023-04-08T05:20:51.417Z,3.91
2023-04-08T05:23:56.903Z,3.96
2023-04-08T05:27:02.145Z,3.91
2023-04-08T05:30:08.755Z,3.97
2023-04-08T05:33:13.861Z,4.00
2023-04-08T05:36:20.428Z,4.02
2023-04-08T05:39:25.466Z,4.03
2023-04-08T05:42:30.544Z,4.07
2023-04-08T05:45:35.704Z,4.23
2023-04-08T05:48:40.988Z,4.16
2023-04-08T05:51:47.971Z,4.19
2023-04-08T05:54:53.097Z,4.21
2023-04-08T05:57:58.201Z,4.29
2023-04-08T06:01:03.272Z,4.16
2023-04-08T06:04:08.538Z,4.20
2023-04-08T06:07:15.110Z,4.34
2023-04-08T06:10:20.632Z,4.44
2023-04-08T06:13:26.026Z,4.37
2023-04-08T06:16:31.328Z,4.55
2023-04-08T06:19:37.188Z,4.62
2023-04-08T06:22:43.704Z,4.65
2023-04-08T06:25:48.806Z,4.70
2023-04-08T06:28:54.136Z,4.81
2023-04-08T06:31:59.197Z,4.99
2023-04-08T06:35:04.293Z,5.08
2023-04-08T06:38:11.277Z,5.00
2023-04-08T06:41:16.313Z,5.00
2023-04-08T06:44:21.566Z,5.15
2023-04-08T06:47:26.801Z,5.27
2023-04-08T06:50:31.943Z,5.31
2023-04-08T06:53:38.988Z,5.34
2023-04-08T06:56:43.996Z,5.41
2023-04-08T06:59:49.046Z,5.49
2023-04-08T07:02:54.279Z,5.73
2023-04-08T07:05:59.590Z,5.95
2023-04-08T07:09:06.280Z,6.11
2023-04-08T07:12:11.434Z,6.02
2023-04-08T07:15:16.768Z,5.95
2023-04-08T07:18:22.785Z,6.12
2023-04-08T07:21:27.871Z,6.11
2023-04-08T07:24:34.445Z,5.93
2023-04-08T07:27:39.533Z,6.07
2023-04-08T07:30:44.722Z,5.88
2023-04-08T07:33:49.742Z,5.78
2023-04-08T07:36:54.672Z,5.95
2023-04-08T07:40:01.254Z,5.82
2023-04-08T07:43:06.882Z,6.06
2023-04-08T07:46:14.244Z,6.15
2023-04-08T07:49:19.297Z,6.03
2023-04-08T07:52:24.619Z,6.09
2023-04-08T07:55:34.678Z,6.01
2023-04-08T07:58:40.500Z,6.26
2023-04-08T08:01:47.015Z,6.28
2023-04-08T08:04:52.343Z,6.54
2023-04-08T08:07:57.585Z,6.25
2023-04-08T08:11:04.108Z,6.38
2023-04-08T08:14:09.112Z,6.27
2023-04-08T08:17:14.496Z,6.59
2023-04-08T08:20:19.697Z,6.35
2023-04-08T08:23:26.087Z,6.66
2023-04-08T08:26:32.573Z,6.57
2023-04-08T08:29:38.210Z,6.48
2023-04-08T08:32:43.617Z,6.42
2023-04-08T08:35:48.729Z,6.37
2023-04-08T08:38:54.527Z,6.40
2023-04-08T08:42:01.442Z,6.64
2023-04-08T08:45:08.248Z,6.70
2023-04-08T08:48:14.101Z,6.80
2023-04-08T08:51:19.092Z,6.83
2023-04-08T08:54:24.365Z,6.81
2023-04-08T08:57:31.700Z,6.98
2023-04-08T09:00:37.647Z,6.80
2023-04-08T09:03:43.003Z,6.77
2023-04-08T09:06:50.326Z,6.77
2023-04-08T09:09:56.113Z,6.96
2023-04-08T09:13:02.595Z,6.78
2023-04-08T09:16:11.857Z,6.79
2023-04-08T09:19:17.331Z,7.02
2023-04-08T09:22:22.450Z,6.85
2023-04-08T09:25:28.211Z,6.98
2023-04-08T09:28:34.601Z,6.82
2023-04-08T09:31:41.793Z,7.13
2023-04-08T09:34:47.539Z,7.17
2023-04-08T09:37:52.870Z,7.09
2023-04-08T09:40:57.998Z,7.22
2023-04-08T09:44:05.922Z,7.32
2023-04-08T09:47:21.337Z,7.37
2023-04-08T09:50:29.753Z,7.25
2023-04-08T09:53:38.314Z,7.65
2023-04-08T09:56:52.985Z,7.47
2023-04-08T10:00:09.901Z,7.34
2023-04-08T10:03:29.775Z,7.61
2023-04-08T10:06:35.767Z,7.63
2023-04-08T10:09:43.144Z,7.64
2023-04-08T10:12:48.218Z,7.69
2023-04-08T10:16:25.283Z,7.67
2023-04-08T10:19:41.406Z,7.49
2023-04-08T10:22:50.039Z,7.83
2023-04-08T10:25:55.765Z,7.65
2023-04-08T10:29:46.459Z,7.81
2023-04-08T10:32:53.044Z,8.10
2023-04-08T10:36:04.509Z,7.83
2023-04-08T10:39:09.694Z,7.93
2023-04-08T10:42:14.709Z,7.99
2023-04-08T10:45:19.749Z,8.03
2023-04-08T10:48:29.022Z,8.22
2023-04-08T10:51:35.235Z,8.20
2023-04-08T10:54:40.799Z,8.13
2023-04-08T10:57:45.868Z,8.17
2023-04-08T11:00:51.397Z,8.09
2023-04-08T11:03:57.980Z,8.37
2023-04-08T11:07:08.562Z,8.60
2023-04-08T11:10:14.013Z,8.53
2023-04-08T11:13:19.354Z,8.45
2023-04-08T11:16:24.558Z,8.56
2023-04-08T11:19:31.076Z,8.67
2023-04-08T11:22:36.115Z,8.68
2023-04-08T11:25:44.660Z,8.66
2023-04-08T11:28:51.900Z,8.56
2023-04-08T11:31:57.276Z,8.75
2023-04-08T11:35:03.966Z,8.72
2023-04-08T11:38:10.812Z,8.78
2023-04-08T11:41:16.591Z,8.99
2023-04-08T11:44:21.806Z,8.93
2023-04-08T11:47:33.563Z,8.98
2023-04-08T11:50:42.274Z,8.89
2023-04-08T11:53:49.299Z,9.13
2023-04-08T11:56:54.735Z,9.16
2023-04-08T11:59:59.748Z,9.38
2023-04-08T12:03:05.023Z,9.22
2023-04-08T12:06:11.626Z,9.17
2023-04-08T12:09:16.855Z,9.07
2023-04-08T12:12:22.311Z,9.06
2023-04-08T12:15:27.398Z,9.09
2023-04-08T12:18:32.365Z,9.06
2023-04-08T12:21:39.499Z,9.20
2023-04-08T12:24:44.883Z,9.30
2023-04-08T12:27:49.920Z,9.21
2023-04-08T12:30:55.096Z,9.47
2023-04-08T12:34:00.165Z,9.71
2023-04-08T12:37:06.906Z,9.72
2023-04-08T12:40:13.780Z,9.57
2023-04-08T12:43:19.021Z,9.52
2023-04-08T12:46:24.140Z,9.74
2023-04-08T12:49:29.333Z,9.64
2023-04-08T12:52:36.734Z,9.73
2023-04-08T12:55:43.828Z,9.63
2023-04-08T12:58:49.890Z,9.64
2023-04-08T13:01:55.450Z,9.57
2023-04-08T13:05:00.921Z,9.55
2023-04-08T13:08:07.644Z,9.69
2023-04-08T13:11:13.565Z,9.63
2023-04-08T13:14:18.763Z,9.52
2023-04-08T13:17:23.942Z,9.45
2023-04-08T13:20:30.034Z,9.82
2023-04-08T13:23:36.863Z,9.87
2023-04-08T13:26:41.906Z,9.74
2023-04-08T13:29:47.027Z,9.53
2023-04-08T13:32:52.122Z,9.58
2023-04-08T13:35:57.405Z,9.56
2023-04-08T13:39:03.991Z,9.91
2023-04-08T13:42:09.352Z,9.88
2023-04-08T13:45:14.720Z,9.69
2023-04-08T13:48:19.761Z,9.92
2023-04-08T13:51:24.867Z,9.71
2023-04-08T13:54:31.487Z,9.84
2023-04-08T13:57:36.687Z,9.72
2023-04-08T14:00:41.758Z,9.60
2023-04-08T14:03:46.859Z,9.66
2023-04-08T14:06:53.342Z,9.94
2023-04-08T14:10:00.122Z,9.88
2023-04-08T14:13:05.141Z,9.76
2023-04-08T14:16:10.336Z,9.67
2023-04-08T14:19:18.322Z,9.69
2023-04-08T14:22:23.343Z,9.54
2023-04-08T14:25:29.785Z,9.75
2023-04-08T14:28:37.031Z,9.59
2023-04-08T14:31:42.193Z,9.88
2023-04-08T14:34:47.310Z,9.69
2023-04-08T14:37:52.334Z,9.81
2023-04-08T14:40:59.990Z,9.85
2023-04-08T14:44:05.530Z,9.52
2023-04-08T14:47:12.491Z,9.41
2023-04-08T14:50:17.707Z,9.72
2023-04-08T14:53:23.422Z,9.76
2023-04-08T14:56:29.893Z,10.01
2023-04-08T14:59:35.143Z,9.94
2023-04-08T15:02:40.220Z,9.95
2023-04-08T15:05:45.548Z,9.78
2023-04-08T15:08:50.811Z,9.40
2023-04-08T15:11:58.504Z,9.36
2023-04-08T15:15:04.599Z,9.32
2023-04-08T15:18:12.945Z,9.11
2023-04-08T15:21:18.065Z,9.48
2023-04-08T15:24:23.142Z,9.38
2023-04-08T15:27:29.553Z,9.01
2023-04-08T15:30:36.205Z,9.12
2023-04-08T15:33:42.969Z,9.32
2023-04-08T15:36:47.956Z,9.18
2023-04-08T15:39:53.801Z,9.08
2023-04-08T15:43:00.407Z,8.97
2023-04-08T15:46:05.624Z,9.30
2023-04-08T15:49:11.186Z,9.44
2023-04-08T15:52:16.893Z,9.25
2023-04-08T15:55:21.947Z,8.81
2023-04-08T15:58:28.516Z,9.18
2023-04-08T16:01:34.663Z,9.04
2023-04-08T16:04:39.936Z,8.99
2023-04-08T16:07:45.041Z,8.82
2023-04-08T16:10:50.090Z,8.83
2023-04-08T16:13:57.392Z,9.03
2023-04-08T16:17:02.384Z,9.13
2023-04-08T16:20:08.473Z,8.96
2023-04-08T16:23:15.570Z,9.07
2023-04-08T16:26:21.946Z,8.94
2023-04-08T16:29:28.746Z,8.65
2023-04-08T16:32:34.037Z,8.55
2023-04-08T16:35:39.973Z,8.30
2023-04-08T16:38:45.015Z,8.58
2023-04-08T16:41:50.031Z,8.26
2023-04-08T16:44:59.642Z,8.61
2023-04-08T16:48:04.851Z,8.40
2023-04-08T16:51:10.901Z,8.14
2023-04-08T16:54:15.917Z,7.86
2023-04-08T16:57:21.312Z,8.02
2023-04-08T17:00:27.951Z,7.76
2023-04-08T17:03:33.122Z,7.40
2023-04-08T17:06:38.349Z,7.83
2023-04-08T17:09:43.431Z,7.42
2023-04-08T17:12:48.544Z,7.15
2023-04-08T17:15:54.950Z,6.88
2023-04-08T17:19:00.270Z,6.78
2023-04-08T17:22:05.563Z,6.75
2023-04-08T17:25:11.606Z,6.74
2023-04-08T17:28:19.920Z,6.61
2023-04-08T17:31:26.428Z,6.50
2023-04-08T17:34:33.125Z,6.65
2023-04-08T17:37:38.202Z,6.93
2023-04-08T17:40:43.303Z,7.06
2023-04-08T17:43:48.466Z,6.82
2023-04-08T17:46:55.241Z,6.93
2023-04-08T17:50:00.412Z,6.82
2023-04-08T17:53:05.665Z,6.77
2023-04-08T17:56:11.948Z,6.62
2023-04-08T17:59:16.952Z,6.71
2023-04-08T18:02:24.876Z,6.62
2023-04-08T18:05:30.428Z,6.54
2023-04-08T18:08:35.484Z,6.41
2023-04-08T18:11:40.483Z,6.15
2023-04-08T18:14:45.533Z,6.24
2023-04-08T18:17:53.538Z,6.17
2023-04-08T18:20:58.864Z,6.07
2023-04-08T18:24:04.149Z,5.95
2023-04-08T18:27:09.970Z,5.95
2023-04-08T18:30:15.474Z,5.96
2023-04-08T18:33:22.205Z,5.98
2023-04-08T18:36:27.449Z,5.87
2023-04-08T18:39:32.556Z,5.72
2023-04-08T18:42:38.050Z,5.85
2023-04-08T18:45:43.303Z,5.84
2023-04-08T18:48:50.248Z,5.71
2023-04-08T18:52:02.676Z,5.65
2023-04-08T18:55:08.527Z,5.68
2023-04-08T18:58:14.104Z,5.43
2023-04-08T19:01:18.834Z,5.32
2023-04-08T19:04:25.009Z,5.13
2023-04-08T19:07:30.032Z,5.02
2023-04-08T19:10:34.977Z,4.79
2023-04-08T19:13:39.680Z,4.68
2023-04-08T19:16:44.467Z,4.70
2023-04-08T19:19:50.682Z,4.51
2023-04-08T19:22:55.951Z,4.45
2023-04-08T19:26:01.030Z,4.33
2023-04-08T19:29:05.928Z,4.23
2023-04-08T19:32:11.526Z,4.07
2023-04-08T19:35:17.775Z,3.97
2023-04-08T19:38:22.799Z,3.96
2023-04-08T19:41:27.544Z,3.91
2023-04-08T19:44:32.275Z,3.84
2023-04-08T19:47:37.325Z,3.84
2023-04-08T19:50:43.362Z,3.72
2023-04-08T19:53:48.077Z,3.68
2023-04-08T19:56:53.479Z,3.68
2023-04-08T19:59:58.330Z,3.66
2023-04-08T20:03:03.255Z,3.60
2023-04-08T20:06:09.856Z,3.62
2023-04-08T20:09:14.539Z,3.56
2023-04-08T20:12:19.500Z,3.39
2023-04-08T20:15:25.374Z,3.31
2023-04-08T20:18:30.395Z,3.25
2023-04-08T20:21:36.730Z,3.22
2023-04-08T20:24:41.840Z,3.20
2023-04-08T20:27:46.602Z,3.17
2023-04-08T20:30:51.893Z,3.14
2023-04-08T20:33:56.563Z,3.14
2023-04-08T20:37:03.057Z,3.06
2023-04-08T20:40:08.637Z,2.92
2023-04-08T20:43:14.885Z,2.96
2023-04-08T20:46:19.823Z,2.92
2023-04-08T20:49:24.900Z,2.91
2023-04-08T20:52:30.991Z,2.87
2023-04-08T20:55:36.065Z,2.91
2023-04-08T20:58:40.784Z,2.90
2023-04-08T21:01:45.747Z,2.94
2023-04-08T21:04:50.539Z,2.87
2023-04-08T21:07:56.669Z,2.80
2023-04-08T21:11:01.301Z,2.72
2023-04-08T21:14:07.164Z,2.69
2023-04-08T21:17:12.033Z,2.67
2023-04-08T21:20:17.101Z,2.64
2023-04-08T21:23:41.492Z,2.56
2023-04-08T21:26:46.131Z,2.51
2023-04-08T21:29:51.885Z,2.47
2023-04-08T21:32:56.939Z,2.52
2023-04-08T21:36:01.620Z,2.54
2023-04-08T21:39:07.704Z,2.41
2023-04-08T21:42:12.842Z,2.36
2023-04-08T21:45:17.901Z,2.33
2023-04-08T21:48:23.515Z,2.38
2023-04-08T21:51:28.748Z,2.32
2023-04-08T21:54:35.189Z,2.24
2023-04-08T21:57:42.897Z,2.25
2023-04-08T22:00:49.562Z,2.22
2023-04-08T22:03:55.651Z,2.12
2023-04-08T22:07:00.403Z,2.11
2023-04-08T22:10:07.432Z,2.08
2023-04-08T22:13:12.254Z,1.98
2023-04-08T22:16:17.184Z,2.10
2023-04-08T22:19:21.890Z,2.17
2023-04-08T22:22:27.005Z,2.39
2023-04-08T22:25:33.673Z,2.44
2023-04-08T22:28:39.033Z,2.49
2023-04-08T22:31:44.084Z,2.55
2023-04-08T22:34:49.168Z,2.63
2023-04-08T22:37:54.564Z,2.53
2023-04-08T22:41:01.380Z,2.57
2023-04-08T22:44:06.839Z,2.54
2023-04-08T22:47:12.193Z,2.50
2023-04-08T22:50:17.221Z,2.48
2023-04-08T22:53:23.641Z,2.41
2023-04-08T22:56:30.790Z,2.38
2023-04-08T22:59:35.958Z,2.32
2023-04-08T23:02:42.488Z,2.27
2023-04-08T23:05:47.657Z,2.19
2023-04-08T23:08:52.815Z,2.21
2023-04-08T23:11:59.405Z,2.26
2023-04-08T23:15:04.621Z,2.30
2023-04-08T23:18:13.428Z,2.27
2023-04-08T23:21:18.525Z,2.20
2023-04-08T23:24:23.826Z,2.17
2023-04-08T23:27:30.284Z,1.97
2023-04-08T23:30:35.384Z,1.94
2023-04-08T23:33:40.541Z,1.94
2023-04-08T23:36:45.454Z,1.87
2023-04-08T23:39:50.122Z,1.71
2023-04-08T23:42:56.215Z,1.80
2023-04-08T23:46:00.897Z,1.78
2023-04-08T23:49:05.758Z,1.87
2023-04-08T23:52:12.868Z,1.88
2023-04-08T23:55:17.705Z,1.77
2023-04-08T23:58:23.785Z,1.79
